Time;durP1;ratioP1;P1;durP2;ratioP2;P2;SDS_P1;SDS_P2;PMS_P1;PMS_P2;Temp;Humidity;BMP_temperature;BMP_pressure;BME280_temperature;BME280_humidity;BME280_pressure;Samples;Min_cycle;Max_cycle;Signal;HPM_P1;HPM_P2
2021/07/07 07:17:57;;;;;;;5.75;3.22;;;;;;;;;;5174185;27;20309;-63
2021/07/07 07:20:27;;;;;;;6.70;3.72;;;;;;;;;;5152986;27;20026;-63
2021/07/07 07:22:53;;;;;;;6.95;3.92;;;;;;;;;;5152416;27;20037;-63
2021/07/07 07:25:19;;;;;;;8.52;4.35;;;;;;;;;;5136619;27;20371;-63
2021/07/07 07:27:45;;;;;;;8.73;3.92;;;;;;;;;;5132401;28;20106;-63
2021/07/07 07:30:12;;;;;;;7.45;4.18;;;;;;;;;;5132382;28;20452;-63
2021/07/07 07:32:38;;;;;;;6.40;4.07;;;;;;;;;;5113907;28;20424;-64
2021/07/07 07:35:04;;;;;;;7.45;3.90;;;;;;;;;;5131716;28;20023;-64
2021/07/07 07:37:39;;;;;;;7.50;4.05;;;;;;;;;;5131609;28;20379;-63
2021/07/07 07:40:13;;;;;;;7.93;3.70;;;;;;;;;;5131386;27;20102;-64
2021/07/07 07:42:42;;;;;;;7.32;4.00;;;;;;;;;;5152018;27;20023;-63
2021/07/07 07:45:10;;;;;;;7.57;4.20;;;;;;;;;;5134036;27;20489;-63
2021/07/07 07:47:36;;;;;;;6.95;3.78;;;;;;;;;;5134587;27;20050;-63
2021/07/07 07:50:02;;;;;;;7.47;4.05;;;;;;;;;;5151791;27;20072;-63
2021/07/07 07:52:28;;;;;;;7.75;3.72;;;;;;;;;;5151455;27;20029;-63
2021/07/07 07:54:54;;;;;;;7.70;3.53;;;;;;;;;;5152121;27;20034;-63
2021/07/07 07:57:20;;;;;;;6.55;3.40;;;;;;;;;;5152794;27;20443;-63
2021/07/07 07:59:47;;;;;;;5.50;3.20;;;;;;;;;;5152285;27;20054;-63
2021/07/07 08:02:12;;;;;;;6.72;3.42;;;;;;;;;;5152506;27;20019;-64
2021/07/07 08:04:38;;;;;;;6.47;3.20;;;;;;;;;;5152158;27;20030;-63
2021/07/07 08:07:04;;;;;;;5.82;3.08;;;;;;;;;;5151862;27;20019;-63
2021/07/07 08:09:31;;;;;;;6.25;2.83;;;;;;;;;;5151520;27;20031;-64
2021/07/07 08:11:57;;;;;;;5.97;2.85;;;;;;;;;;5139109;27;20510;-63
2021/07/07 08:14:23;;;;;;;6.07;3.40;;;;;;;;;;5129735;27;20105;-63
2021/07/07 08:16:50;;;;;;;5.95;2.80;;;;;;;;;;5136771;27;20130;-63
2021/07/07 08:19:16;;;;;;;6.13;3.05;;;;;;;;;;5152188;27;20027;-64
2021/07/07 08:21:42;;;;;;;6.55;3.35;;;;;;;;;;5150557;27;20109;-66
2021/07/07 08:24:08;;;;;;;6.15;3.00;;;;;;;;;;5133827;27;20027;-64
2021/07/07 08:26:34;;;;;;;5.60;3.03;;;;;;;;;;5112693;28;20043;-63
2021/07/07 08:29:01;;;;;;;5.32;3.08;;;;;;;;;;5118691;28;20066;-64
2021/07/07 08:31:27;;;;;;;6.72;2.83;;;;;;;;;;5116242;28;20027;-65
2021/07/07 08:33:54;;;;;;;6.72;3.20;;;;;;;;;;5117408;27;20024;-64
2021/07/07 08:36:23;;;;;;;7.53;3.00;;;;;;;;;;5117364;28;20488;-64
2021/07/07 08:38:50;;;;;;;7.07;3.30;;;;;;;;;;5097079;28;20058;-63
2021/07/07 08:41:16;;;;;;;8.95;3.20;;;;;;;;;;5116645;28;20114;-63
2021/07/07 08:43:44;;;;;;;7.03;3.50;;;;;;;;;;5130964;27;20052;-63
2021/07/07 08:46:10;;;;;;;6.32;3.50;;;;;;;;;;5119036;27;20027;-63
2021/07/07 08:48:36;;;;;;;8.05;4.05;;;;;;;;;;5137184;27;20047;-63
2021/07/07 08:51:03;;;;;;;6.45;3.20;;;;;;;;;;5119897;27;20023;-63
2021/07/07 08:53:29;;;;;;;18.50;10.13;;;;;;;;;;5103040;28;20080;-64
2021/07/07 08:55:57;;;;;;;41.50;23.40;;;;;;;;;;5117001;28;20023;-63
2021/07/07 08:58:23;;;;;;;18.30;9.02;;;;;;;;;;5117573;28;20042;-63
2021/07/07 09:00:52;;;;;;;13.15;7.35;;;;;;;;;;5115832;28;20027;-63
2021/07/07 09:03:19;;;;;;;18.42;9.05;;;;;;;;;;5116917;28;20408;-63
2021/07/07 09:05:48;;;;;;;11.88;6.28;;;;;;;;;;5116849;28;20456;-63
2021/07/07 09:08:14;;;;;;;11.65;6.70;;;;;;;;;;5122015;27;20019;-63
2021/07/07 09:10:40;;;;;;;10.25;5.90;;;;;;;;;;5136711;27;20451;-63
2021/07/07 09:13:13;;;;;;;11.70;7.40;;;;;;;;;;5124071;27;20107;-63
2021/07/07 09:15:39;;;;;;;10.70;5.70;;;;;;;;;;5116172;28;20037;-63
2021/07/07 09:18:06;;;;;;;7.78;4.10;;;;;;;;;;5116424;28;20023;-63
2021/07/07 09:20:40;;;;;;;26.95;17.80;;;;;;;;;;5098066;28;20145;-63
2021/07/07 09:23:15;;;;;;;10.07;4.80;;;;;;;;;;5127598;27;20066;-63
2021/07/07 09:26:05;;;;;;;7.07;4.13;;;;;;;;;;5118972;27;20026;-63
2021/07/07 09:28:31;;;;;;;9.45;4.22;;;;;;;;;;5123692;27;20080;-64
2021/07/07 09:31:01;;;;;;;10.73;7.00;;;;;;;;;;5137201;27;20046;-63
2021/07/07 09:33:27;;;;;;;10.65;5.88;;;;;;;;;;5136701;27;20027;-63
2021/07/07 09:36:13;;;;;;;7.03;4.10;;;;;;;;;;5136482;27;20027;-64
2021/07/07 09:38:40;;;;;;;8.98;3.70;;;;;;;;;;5136587;27;20188;-63
2021/07/07 09:41:12;;;;;;;6.22;3.25;;;;;;;;;;5135971;27;20027;-63
2021/07/07 09:43:49;;;;;;;6.10;3.22;;;;;;;;;;5136781;27;20026;-64
2021/07/07 09:46:15;;;;;;;5.95;3.33;;;;;;;;;;5131978;27;20036;-63
2021/07/07 09:48:41;;;;;;;8.98;4.22;;;;;;;;;;5115426;28;20027;-63
2021/07/07 09:51:07;;;;;;;6.97;3.67;;;;;;;;;;5115743;28;20035;-63
2021/07/07 09:53:33;;;;;;;7.05;3.45;;;;;;;;;;5123319;27;20027;-68
2021/07/07 09:56:01;;;;;;;6.97;3.58;;;;;;;;;;5113086;28;20071;-64
2021/07/07 09:58:27;;;;;;;6.63;3.50;;;;;;;;;;5096851;27;20118;-64
2021/07/07 10:00:53;;;;;;;6.95;3.35;;;;;;;;;;5119980;27;20063;-63
2021/07/07 10:03:19;;;;;;;7.65;4.20;;;;;;;;;;5136007;27;20051;-64
2021/07/07 10:05:47;;;;;;;9.50;4.85;;;;;;;;;;5115483;27;20038;-64
2021/07/07 10:08:14;;;;;;;7.60;3.47;;;;;;;;;;5112813;27;20019;-63
2021/07/07 10:10:42;;;;;;;6.60;3.17;;;;;;;;;;5113922;28;20077;-63
2021/07/07 10:13:11;;;;;;;6.75;3.50;;;;;;;;;;5111819;28;20073;-63
2021/07/07 10:15:38;;;;;;;6.43;3.50;;;;;;;;;;5122230;27;20031;-64
2021/07/07 10:18:05;;;;;;;6.38;3.35;;;;;;;;;;5120941;27;20114;-63
2021/07/07 10:20:31;;;;;;;7.45;3.83;;;;;;;;;;5121248;27;20499;-64
2021/07/07 10:22:57;;;;;;;6.43;3.13;;;;;;;;;;5114035;28;20375;-63
2021/07/07 10:25:24;;;;;;;7.85;3.28;;;;;;;;;;5113943;28;20107;-64
2021/07/07 10:27:51;;;;;;;8.20;4.00;;;;;;;;;;5120294;27;20030;-64
2021/07/07 10:30:20;;;;;;;6.97;3.30;;;;;;;;;;5119850;27;20405;-63
2021/07/07 10:33:04;;;;;;;6.68;3.30;;;;;;;;;;5135151;27;20126;-63
2021/07/07 10:35:30;;;;;;;5.63;2.85;;;;;;;;;;5135416;27;20557;-63
2021/07/07 10:37:57;;;;;;;8.95;3.22;;;;;;;;;;5135595;27;20348;-63
2021/07/07 10:40:24;;;;;;;6.70;3.08;;;;;;;;;;5094699;28;20391;-63
2021/07/07 10:42:50;;;;;;;6.90;3.30;;;;;;;;;;5112537;28;20409;-63
2021/07/07 10:45:39;;;;;;;6.88;3.10;;;;;;;;;;5114479;28;20106;-64
2021/07/07 10:48:27;;;;;;;6.95;3.30;;;;;;;;;;5102058;28;20126;-63
2021/07/07 10:50:58;;;;;;;10.57;3.80;;;;;;;;;;5113477;28;20111;-63
2021/07/07 10:53:28;;;;;;;7.65;4.10;;;;;;;;;;5114970;27;20047;-63
2021/07/07 10:55:54;;;;;;;6.22;3.10;;;;;;;;;;5135396;27;20034;-63
2021/07/07 10:58:24;;;;;;;6.32;2.80;;;;;;;;;;5124273;27;20046;-63
2021/07/07 11:00:50;;;;;;;7.78;4.28;;;;;;;;;;5126666;27;20030;-63
2021/07/07 11:03:21;;;;;;;7.72;3.20;;;;;;;;;;5113508;28;20020;-63
2021/07/07 11:05:47;;;;;;;7.00;2.85;;;;;;;;;;5113929;28;20100;-64
2021/07/07 11:08:31;;;;;;;5.70;2.72;;;;;;;;;;5112916;28;20037;-64
2021/07/07 11:10:59;;;;;;;8.10;3.22;;;;;;;;;;5118453;27;20065;-64
2021/07/07 11:13:27;;;;;;;6.93;2.65;;;;;;;;;;5129752;27;20185;-64
2021/07/07 11:15:54;;;;;;;7.25;2.50;;;;;;;;;;5113909;28;20104;-64
2021/07/07 11:18:24;;;;;;;5.88;2.97;;;;;;;;;;5096093;28;20028;-63
2021/07/07 11:21:17;;;;;;;5.93;2.60;;;;;;;;;;5112892;28;20035;-64
2021/07/07 11:23:43;;;;;;;7.40;2.90;;;;;;;;;;5116138;28;20553;-64
2021/07/07 11:26:09;;;;;;;5.55;2.70;;;;;;;;;;5114822;28;20283;-64
2021/07/07 11:28:36;;;;;;;5.80;3.17;;;;;;;;;;5124558;28;20019;-64
2021/07/07 11:31:02;;;;;;;6.55;3.05;;;;;;;;;;5133585;28;20027;-63
2021/07/07 11:33:28;;;;;;;6.05;3.08;;;;;;;;;;5133533;28;20027;-63
2021/07/07 11:35:56;;;;;;;5.38;2.70;;;;;;;;;;5119795;28;20081;-68
2021/07/07 11:38:24;;;;;;;5.72;2.50;;;;;;;;;;5119744;28;20034;-63
2021/07/07 11:40:54;;;;;;;7.60;2.70;;;;;;;;;;5132524;28;20023;-63
2021/07/07 11:43:27;;;;;;;5.18;2.40;;;;;;;;;;5133880;28;20030;-63
2021/07/07 11:45:54;;;;;;;6.22;2.45;;;;;;;;;;5134905;28;20023;-63
2021/07/07 11:48:28;;;;;;;5.30;2.60;;;;;;;;;;5134504;28;20130;-63
2021/07/07 11:50:57;;;;;;;7.68;4.25;;;;;;;;;;5095123;28;20057;-63
2021/07/07 11:53:24;;;;;;;7.82;3.28;;;;;;;;;;5123997;28;20076;-63
2021/07/07 11:55:55;;;;;;;5.43;2.50;;;;;;;;;;5091688;28;20080;-63
2021/07/07 11:58:21;;;;;;;7.35;2.60;;;;;;;;;;5111012;28;20027;-63
2021/07/07 12:00:47;;;;;;;5.15;2.40;;;;;;;;;;5111209;28;20030;-64
2021/07/07 12:03:15;;;;;;;5.13;2.63;;;;;;;;;;5099916;27;20029;-64
2021/07/07 12:05:48;;;;;;;5.32;2.58;;;;;;;;;;5121559;27;20040;-63
2021/07/07 12:08:18;;;;;;;6.47;2.30;;;;;;;;;;5116891;27;20026;-64
2021/07/07 12:10:44;;;;;;;5.95;2.40;;;;;;;;;;5113560;27;20020;-64
2021/07/07 12:13:29;;;;;;;5.75;2.30;;;;;;;;;;5112901;27;20486;-64
2021/07/07 12:16:14;;;;;;;5.78;2.50;;;;;;;;;;5114958;27;20051;-63
2021/07/07 12:18:40;;;;;;;6.97;2.50;;;;;;;;;;5115256;27;20034;-63
2021/07/07 12:21:07;;;;;;;5.50;2.40;;;;;;;;;;5121732;27;20018;-63
2021/07/07 12:23:43;;;;;;;6.82;2.40;;;;;;;;;;5102130;27;20031;-64
2021/07/07 12:26:09;;;;;;;5.88;2.80;;;;;;;;;;5098110;27;20026;-65
2021/07/07 12:28:36;;;;;;;7.22;2.60;;;;;;;;;;5098546;27;20417;-64
2021/07/07 12:31:02;;;;;;;5.43;2.47;;;;;;;;;;5115127;27;20100;-64
2021/07/07 12:33:31;;;;;;;6.93;3.40;;;;;;;;;;5122380;27;20478;-63
2021/07/07 12:35:58;;;;;;;5.45;2.63;;;;;;;;;;5117900;27;20087;-64
2021/07/07 12:38:24;;;;;;;13.23;6.43;;;;;;;;;;5117958;27;20058;-63
2021/07/07 12:40:57;;;;;;;21.02;10.10;;;;;;;;;;5134224;27;20031;-63
2021/07/07 12:43:28;;;;;;;101.18;47.05;;;;;;;;;;5133975;27;20459;-63
2021/07/07 12:46:04;;;;;;;20.75;11.05;;;;;;;;;;5105337;28;20035;-63
2021/07/07 12:48:30;;;;;;;7.15;3.30;;;;;;;;;;5096960;28;20034;-63
2021/07/07 12:50:57;;;;;;;8.52;3.28;;;;;;;;;;5134039;27;20027;-63
2021/07/07 12:53:35;;;;;;;6.15;3.03;;;;;;;;;;5133819;27;20072;-63
2021/07/07 12:56:08;;;;;;;5.80;2.72;;;;;;;;;;5134723;27;20084;-63
2021/07/07 12:58:34;;;;;;;8.18;2.78;;;;;;;;;;5135919;27;20038;-63
2021/07/07 13:01:00;;;;;;;6.07;2.78;;;;;;;;;;5136096;27;20023;-63
2021/07/07 13:03:35;;;;;;;5.63;2.70;;;;;;;;;;5118021;27;20415;-63
2021/07/07 13:06:04;;;;;;;9.13;4.65;;;;;;;;;;5109846;27;20012;-63
2021/07/07 13:08:42;;;;;;;7.32;2.83;;;;;;;;;;5111833;27;20045;-64
2021/07/07 13:11:16;;;;;;;6.30;2.60;;;;;;;;;;5108869;28;20035;-65
2021/07/07 13:13:43;;;;;;;7.88;2.53;;;;;;;;;;5105865;27;20119;-67
2021/07/07 13:16:14;;;;;;;7.07;2.90;;;;;;;;;;5109503;28;20043;-63
2021/07/07 13:18:52;;;;;;;5.10;2.50;;;;;;;;;;5110748;28;20043;-64
2021/07/07 13:21:28;;;;;;;5.32;2.45;;;;;;;;;;5110467;27;20036;-64
2021/07/07 13:23:54;;;;;;;6.32;2.70;;;;;;;;;;5118447;27;20011;-64
2021/07/07 13:26:27;;;;;;;6.55;2.97;;;;;;;;;;5116656;27;20027;-63
2021/07/07 13:28:54;;;;;;;6.90;2.85;;;;;;;;;;5126776;27;20023;-63
2021/07/07 13:31:23;;;;;;;5.55;2.90;;;;;;;;;;5121729;27;20027;-64
2021/07/07 13:33:52;;;;;;;5.78;2.75;;;;;;;;;;5113720;28;20055;-63
2021/07/07 13:36:19;;;;;;;5.28;2.50;;;;;;;;;;5111061;28;20073;-67
2021/07/07 13:38:45;;;;;;;6.60;3.03;;;;;;;;;;5114370;28;20023;-63
2021/07/07 13:41:11;;;;;;;5.32;2.45;;;;;;;;;;5115581;28;20066;-63
2021/07/07 13:43:38;;;;;;;4.60;2.08;;;;;;;;;;5114842;28;20035;-63
2021/07/07 13:46:04;;;;;;;4.85;2.20;;;;;;;;;;5115713;28;20216;-63
2021/07/07 13:48:30;;;;;;;5.82;2.53;;;;;;;;;;5115001;28;20066;-71
2021/07/07 13:50:56;;;;;;;6.32;2.70;;;;;;;;;;5113187;28;20034;-63
2021/07/07 13:53:22;;;;;;;6.78;2.47;;;;;;;;;;5114389;28;20031;-68
2021/07/07 13:55:48;;;;;;;5.88;3.22;;;;;;;;;;5114674;28;20487;-65
2021/07/07 13:58:14;;;;;;;7.53;3.97;;;;;;;;;;5113553;28;20035;-62
2021/07/07 14:00:40;;;;;;;7.07;4.60;;;;;;;;;;5114087;28;20030;-62
2021/07/07 14:03:06;;;;;;;7.68;3.35;;;;;;;;;;5112608;28;20032;-62
2021/07/07 14:05:32;;;;;;;6.20;2.95;;;;;;;;;;5113723;28;20111;-63
2021/07/07 14:07:59;;;;;;;6.43;2.10;;;;;;;;;;5113696;28;20019;-63
2021/07/07 14:10:26;;;;;;;6.35;2.42;;;;;;;;;;5111427;28;20372;-63
2021/07/07 14:12:52;;;;;;;4.93;2.33;;;;;;;;;;5112564;28;20081;-63
2021/07/07 14:15:18;;;;;;;5.88;2.63;;;;;;;;;;5113289;28;20031;-64
2021/07/07 14:17:44;;;;;;;7.32;2.45;;;;;;;;;;5111419;28;20039;-63
2021/07/07 14:20:10;;;;;;;5.32;2.20;;;;;;;;;;5111576;28;20483;-64
2021/07/07 14:22:36;;;;;;;5.43;2.60;;;;;;;;;;5110447;28;20023;-63
2021/07/07 14:25:02;;;;;;;5.60;2.30;;;;;;;;;;5114250;28;20030;-63
2021/07/07 14:27:28;;;;;;;6.75;2.70;;;;;;;;;;5094682;28;20034;-63
2021/07/07 14:29:54;;;;;;;6.30;2.60;;;;;;;;;;5112246;28;20463;-63
2021/07/07 14:32:20;;;;;;;5.57;2.90;;;;;;;;;;5114729;28;20035;-63
2021/07/07 14:34:47;;;;;;;6.50;2.42;;;;;;;;;;5114700;28;20098;-63
2021/07/07 14:37:13;;;;;;;6.70;3.40;;;;;;;;;;5111269;27;20085;-64
2021/07/07 14:39:39;;;;;;;14.93;8.93;;;;;;;;;;5116143;27;20027;-63
2021/07/07 14:42:05;;;;;;;8.27;3.45;;;;;;;;;;5133945;27;20033;-63
2021/07/07 14:44:31;;;;;;;6.43;2.60;;;;;;;;;;5114033;27;20046;-63
2021/07/07 14:46:57;;;;;;;6.45;2.90;;;;;;;;;;5131761;27;20023;-63
2021/07/07 14:49:24;;;;;;;5.40;2.30;;;;;;;;;;5134140;27;20027;-63
2021/07/07 14:51:50;;;;;;;5.50;2.50;;;;;;;;;;5102196;28;20031;-63
2021/07/07 14:54:16;;;;;;;6.82;2.80;;;;;;;;;;5096071;28;20368;-63
2021/07/07 14:56:42;;;;;;;7.40;2.70;;;;;;;;;;5112844;28;20038;-63
2021/07/07 14:59:08;;;;;;;5.88;2.35;;;;;;;;;;5109179;28;20038;-63
2021/07/07 15:01:34;;;;;;;5.88;2.40;;;;;;;;;;5111177;28;20031;-63
2021/07/07 15:04:00;;;;;;;10.55;2.30;;;;;;;;;;5112988;28;20030;-63
2021/07/07 15:06:26;;;;;;;5.70;2.17;;;;;;;;;;5110509;28;20367;-64
2021/07/07 15:08:52;;;;;;;5.30;2.40;;;;;;;;;;5113574;28;20034;-64
2021/07/07 15:11:18;;;;;;;5.18;2.30;;;;;;;;;;5112771;28;20356;-64
2021/07/07 15:13:44;;;;;;;4.85;2.28;;;;;;;;;;5110934;28;20119;-64
2021/07/07 15:16:10;;;;;;;5.47;2.50;;;;;;;;;;5112733;28;20047;-64
2021/07/07 15:18:37;;;;;;;9.10;2.70;;;;;;;;;;5104078;28;20025;-64
2021/07/07 15:21:03;;;;;;;6.90;2.88;;;;;;;;;;5111663;28;20096;-65
2021/07/07 15:23:29;;;;;;;5.70;2.85;;;;;;;;;;5113407;28;20019;-66
2021/07/07 15:25:55;;;;;;;5.70;2.30;;;;;;;;;;5112454;28;20024;-64
2021/07/07 15:28:21;;;;;;;5.43;2.22;;;;;;;;;;5115507;28;20491;-64
2021/07/07 15:30:48;;;;;;;5.25;2.30;;;;;;;;;;5114622;28;20062;-66
2021/07/07 15:33:14;;;;;;;6.82;2.53;;;;;;;;;;5116030;28;20540;-65
2021/07/07 15:35:40;;;;;;;6.28;2.40;;;;;;;;;;5123595;28;20019;-63
2021/07/07 15:38:06;;;;;;;6.38;2.40;;;;;;;;;;5114467;27;20046;-65
2021/07/07 15:40:32;;;;;;;6.45;2.40;;;;;;;;;;5115048;28;20448;-65
2021/07/07 15:42:59;;;;;;;5.97;2.30;;;;;;;;;;5132403;27;20034;-62
2021/07/07 15:45:25;;;;;;;6.30;2.40;;;;;;;;;;5117647;28;20111;-62
2021/07/07 15:47:51;;;;;;;5.50;2.40;;;;;;;;;;5116010;28;20078;-63
2021/07/07 15:50:17;;;;;;;5.40;2.30;;;;;;;;;;5117584;28;20032;-67
2021/07/07 15:52:44;;;;;;;6.97;2.20;;;;;;;;;;5123811;27;20023;-63
2021/07/07 15:55:10;;;;;;;7.00;2.50;;;;;;;;;;5135533;27;20018;-62
2021/07/07 15:57:39;;;;;;;7.30;2.20;;;;;;;;;;5116591;27;20034;-65
2021/07/07 16:00:13;;;;;;;6.00;2.63;;;;;;;;;;5130596;27;20699;-63
2021/07/07 16:02:39;;;;;;;5.68;2.53;;;;;;;;;;5119367;27;20015;-63
2021/07/07 16:05:06;;;;;;;7.40;2.75;;;;;;;;;;5122409;27;20054;-63
2021/07/07 16:07:32;;;;;;;5.93;2.60;;;;;;;;;;5121373;27;20010;-62
2021/07/07 16:09:58;;;;;;;8.15;2.42;;;;;;;;;;5115183;27;20028;-63
2021/07/07 16:12:24;;;;;;;5.72;2.30;;;;;;;;;;5124838;27;20065;-63
2021/07/07 16:14:50;;;;;;;7.07;2.58;;;;;;;;;;5136399;27;20030;-63
2021/07/07 16:17:16;;;;;;;6.93;2.50;;;;;;;;;;5136868;27;20039;-63
2021/07/07 16:19:42;;;;;;;6.28;2.20;;;;;;;;;;5137840;27;20034;-63
2021/07/07 16:22:08;;;;;;;5.30;2.22;;;;;;;;;;5137795;27;20031;-63
2021/07/07 16:24:34;;;;;;;5.75;2.20;;;;;;;;;;5136967;27;20023;-63
2021/07/07 16:27:00;;;;;;;6.03;2.67;;;;;;;;;;5138037;27;20019;-63
2021/07/07 16:29:26;;;;;;;6.18;2.60;;;;;;;;;;5119563;27;20080;-63
2021/07/07 16:31:52;;;;;;;6.88;2.55;;;;;;;;;;5138188;27;20026;-62
2021/07/07 16:34:18;;;;;;;7.80;3.08;;;;;;;;;;5135038;27;20058;-63
2021/07/07 16:36:44;;;;;;;6.45;3.10;;;;;;;;;;5133420;27;20036;-62
2021/07/07 16:39:10;;;;;;;7.45;2.80;;;;;;;;;;5134459;27;20031;-63
2021/07/07 16:41:37;;;;;;;6.35;2.60;;;;;;;;;;5117100;28;20077;-62
2021/07/07 16:44:03;;;;;;;5.47;2.30;;;;;;;;;;5114618;27;20073;-63
2021/07/07 16:46:29;;;;;;;5.82;2.55;;;;;;;;;;5117315;28;20019;-63
2021/07/07 16:48:55;;;;;;;12.90;5.68;;;;;;;;;;5112928;27;20427;-63
2021/07/07 16:51:21;;;;;;;7.90;3.25;;;;;;;;;;5116656;27;20132;-62
2021/07/07 16:53:48;;;;;;;5.22;2.40;;;;;;;;;;5106593;27;20510;-63
2021/07/07 16:56:14;;;;;;;7.32;2.40;;;;;;;;;;5121496;27;20033;-63
2021/07/07 16:58:40;;;;;;;6.85;2.65;;;;;;;;;;5119030;27;20035;-64
2021/07/07 17:01:07;;;;;;;6.43;2.60;;;;;;;;;;5132923;27;20152;-64
2021/07/07 17:03:33;;;;;;;6.50;2.42;;;;;;;;;;5123580;27;20473;-63
2021/07/07 17:05:59;;;;;;;6.18;2.60;;;;;;;;;;5124288;27;20027;-64
2021/07/07 17:08:26;;;;;;;7.25;2.97;;;;;;;;;;5136295;27;20079;-64
2021/07/07 17:10:52;;;;;;;6.90;2.70;;;;;;;;;;5125027;27;20031;-64
2021/07/07 17:13:23;;;;;;;8.90;2.58;;;;;;;;;;5116873;27;20032;-63
2021/07/07 17:15:49;;;;;;;6.07;2.40;;;;;;;;;;5129345;27;20072;-64
2021/07/07 17:18:15;;;;;;;6.13;2.67;;;;;;;;;;5136089;27;20038;-64
2021/07/07 17:20:42;;;;;;;8.32;2.95;;;;;;;;;;5136625;27;20023;-64
2021/07/07 17:23:08;;;;;;;5.80;2.90;;;;;;;;;;5135121;27;20015;-64
2021/07/07 17:25:35;;;;;;;6.03;2.78;;;;;;;;;;5135233;27;20182;-64
2021/07/07 17:28:02;;;;;;;5.88;2.70;;;;;;;;;;5119264;27;20444;-64
2021/07/07 17:30:29;;;;;;;10.40;2.97;;;;;;;;;;5129982;27;20035;-64
2021/07/07 17:32:55;;;;;;;6.63;3.03;;;;;;;;;;5126623;27;20027;-64
2021/07/07 17:35:21;;;;;;;6.55;2.60;;;;;;;;;;5137127;27;20026;-64
2021/07/07 17:37:47;;;;;;;8.23;2.53;;;;;;;;;;5136097;27;20027;-64
2021/07/07 17:40:13;;;;;;;8.43;2.80;;;;;;;;;;5136074;27;20451;-64
2021/07/07 17:42:39;;;;;;;5.88;2.70;;;;;;;;;;5136170;27;20030;-64
2021/07/07 17:45:06;;;;;;;7.97;2.72;;;;;;;;;;5118023;27;20026;-64
2021/07/07 17:47:32;;;;;;;5.78;2.90;;;;;;;;;;5136900;27;20347;-64
2021/07/07 17:49:58;;;;;;;6.32;2.90;;;;;;;;;;5136607;27;20110;-64
2021/07/07 17:52:24;;;;;;;9.77;3.00;;;;;;;;;;5127381;27;20027;-63
2021/07/07 17:54:50;;;;;;;6.75;2.72;;;;;;;;;;5127569;27;20538;-63
2021/07/07 17:57:16;;;;;;;6.13;2.83;;;;;;;;;;5125619;27;20348;-64
2021/07/07 17:59:44;;;;;;;5.85;3.00;;;;;;;;;;5123716;27;20046;-63
2021/07/07 18:02:10;;;;;;;7.47;3.30;;;;;;;;;;5131879;27;20023;-63
2021/07/07 18:04:36;;;;;;;8.07;3.30;;;;;;;;;;5129488;27;20019;-63
2021/07/07 18:07:02;;;;;;;8.60;3.47;;;;;;;;;;5115817;27;20110;-63
2021/07/07 18:09:28;;;;;;;6.93;3.08;;;;;;;;;;5118864;27;20386;-63
2021/07/07 18:11:57;;;;;;;6.25;3.40;;;;;;;;;;5116998;27;20086;-66
2021/07/07 18:14:24;;;;;;;7.15;3.40;;;;;;;;;;5117476;27;20023;-64
2021/07/07 18:16:50;;;;;;;10.77;3.60;;;;;;;;;;5097086;28;20046;-64
2021/07/07 18:19:18;;;;;;;9.73;3.28;;;;;;;;;;5118795;27;20023;-65
2021/07/07 18:21:47;;;;;;;6.45;3.15;;;;;;;;;;5120095;27;20059;-70
2021/07/07 18:24:13;;;;;;;11.05;3.15;;;;;;;;;;5120062;27;20047;-64
2021/07/07 18:26:39;;;;;;;7.80;3.28;;;;;;;;;;5109748;28;20020;-64
2021/07/07 18:29:06;;;;;;;7.35;3.30;;;;;;;;;;5113756;28;20459;-63
2021/07/07 18:31:32;;;;;;;9.85;3.67;;;;;;;;;;5124715;27;20035;-68
2021/07/07 18:33:59;;;;;;;9.52;3.83;;;;;;;;;;5132685;27;20063;-63
2021/07/07 18:36:26;;;;;;;9.10;4.22;;;;;;;;;;5118384;27;20110;-65
2021/07/07 18:38:52;;;;;;;9.13;3.95;;;;;;;;;;5121851;27;20073;-63
2021/07/07 18:41:18;;;;;;;9.30;3.40;;;;;;;;;;5113666;28;20031;-64
2021/07/07 18:43:44;;;;;;;7.78;3.75;;;;;;;;;;5108048;27;20129;-64
2021/07/07 18:46:10;;;;;;;47.08;20.90;;;;;;;;;;5135329;27;20035;-64
2021/07/07 18:48:36;;;;;;;43.35;19.60;;;;;;;;;;5132222;27;20532;-64
2021/07/07 18:51:04;;;;;;;42.05;21.50;;;;;;;;;;5134655;27;20027;-64
2021/07/07 18:53:31;;;;;;;71.45;31.58;;;;;;;;;;5135196;27;20404;-64
2021/07/07 18:55:57;;;;;;;62.50;31.15;;;;;;;;;;5134851;27;20363;-64
2021/07/07 18:58:23;;;;;;;57.90;29.15;;;;;;;;;;5131293;27;20470;-64
2021/07/07 19:00:49;;;;;;;39.20;19.58;;;;;;;;;;5134252;27;20034;-64
2021/07/07 19:03:15;;;;;;;32.40;15.85;;;;;;;;;;5135381;27;20019;-63
2021/07/07 19:05:42;;;;;;;24.63;11.68;;;;;;;;;;5135408;27;20058;-63
2021/07/07 19:08:11;;;;;;;15.80;8.35;;;;;;;;;;5116585;28;20019;-64
2021/07/07 19:10:37;;;;;;;15.75;8.00;;;;;;;;;;5134673;27;20455;-64
2021/07/07 19:13:03;;;;;;;13.82;6.78;;;;;;;;;;5134739;27;20105;-65
2021/07/07 19:15:29;;;;;;;13.20;6.40;;;;;;;;;;5114577;28;20023;-64
2021/07/07 19:17:56;;;;;;;12.68;5.75;;;;;;;;;;5114299;28;20036;-64
2021/07/07 19:20:24;;;;;;;10.68;5.57;;;;;;;;;;5112528;28;20028;-69
2021/07/07 19:22:51;;;;;;;11.88;5.30;;;;;;;;;;5124540;28;20027;-64
2021/07/07 19:25:17;;;;;;;11.07;5.43;;;;;;;;;;5129062;28;20051;-64
2021/07/07 19:27:44;;;;;;;10.23;4.93;;;;;;;;;;5129960;28;20514;-64
2021/07/07 19:30:11;;;;;;;11.77;5.53;;;;;;;;;;5114772;28;20092;-68
2021/07/07 19:32:37;;;;;;;11.77;4.95;;;;;;;;;;5112159;28;20031;-64
2021/07/07 19:35:05;;;;;;;7.95;4.65;;;;;;;;;;5106096;28;20512;-64
2021/07/07 19:37:31;;;;;;;9.45;5.10;;;;;;;;;;5110585;28;20040;-64
2021/07/07 19:39:57;;;;;;;10.15;4.85;;;;;;;;;;5096389;28;20114;-65
2021/07/07 19:42:23;;;;;;;8.30;3.90;;;;;;;;;;5120379;28;20015;-64
2021/07/07 19:44:50;;;;;;;8.13;3.72;;;;;;;;;;5125114;28;20446;-64
2021/07/07 19:47:16;;;;;;;7.88;3.90;;;;;;;;;;5105177;28;20024;-65
2021/07/07 19:49:43;;;;;;;8.52;3.67;;;;;;;;;;5114819;28;20035;-65
2021/07/07 19:52:09;;;;;;;8.63;3.72;;;;;;;;;;5118063;28;20034;-64
2021/07/07 19:54:35;;;;;;;11.23;4.03;;;;;;;;;;5123379;28;20026;-64
2021/07/07 19:57:01;;;;;;;8.60;3.58;;;;;;;;;;5132008;28;20528;-64
2021/07/07 19:59:27;;;;;;;7.70;4.03;;;;;;;;;;5117591;28;20024;-64
2021/07/07 20:01:53;;;;;;;9.20;4.05;;;;;;;;;;5116854;28;20564;-64
2021/07/07 20:04:19;;;;;;;8.95;3.95;;;;;;;;;;5135098;28;20072;-64
2021/07/07 20:06:45;;;;;;;7.47;4.00;;;;;;;;;;5134422;28;20031;-64
2021/07/07 20:09:11;;;;;;;6.05;3.55;;;;;;;;;;5134704;28;20025;-63
2021/07/07 20:11:38;;;;;;;6.53;3.90;;;;;;;;;;5133449;28;20027;-62
2021/07/07 20:14:04;;;;;;;6.72;3.65;;;;;;;;;;5130055;28;20027;-62
2021/07/07 20:16:30;;;;;;;9.05;4.43;;;;;;;;;;5115595;28;20071;-62
2021/07/07 20:18:56;;;;;;;7.80;3.88;;;;;;;;;;5116573;28;20023;-62
2021/07/07 20:21:23;;;;;;;7.25;3.97;;;;;;;;;;5134583;28;20031;-62
2021/07/07 20:23:49;;;;;;;8.52;3.95;;;;;;;;;;5134659;27;20096;-63
2021/07/07 20:26:16;;;;;;;8.50;4.68;;;;;;;;;;5138308;27;20416;-62
2021/07/07 20:28:42;;;;;;;8.88;4.10;;;;;;;;;;5137998;27;20031;-62
2021/07/07 20:31:08;;;;;;;8.20;4.43;;;;;;;;;;5117894;27;20027;-64
2021/07/07 20:33:36;;;;;;;9.98;4.63;;;;;;;;;;5131528;27;20015;-63
2021/07/07 20:36:02;;;;;;;8.70;4.20;;;;;;;;;;5118240;27;20045;-62
2021/07/07 20:38:31;;;;;;;10.25;4.07;;;;;;;;;;5117423;28;20366;-63
2021/07/07 20:40:59;;;;;;;6.82;3.92;;;;;;;;;;5117189;27;20035;-62
2021/07/07 20:43:25;;;;;;;8.88;4.50;;;;;;;;;;5120712;27;20023;-62
2021/07/07 20:45:51;;;;;;;7.07;4.60;;;;;;;;;;5131447;27;20497;-62
2021/07/07 20:48:17;;;;;;;7.95;4.65;;;;;;;;;;5117353;28;20023;-63
2021/07/07 20:50:43;;;;;;;8.70;4.07;;;;;;;;;;5116527;28;20028;-62
2021/07/07 20:53:09;;;;;;;8.77;4.82;;;;;;;;;;5117312;28;20445;-62
2021/07/07 20:55:35;;;;;;;8.55;4.40;;;;;;;;;;5098614;28;20478;-62
2021/07/07 20:58:01;;;;;;;10.40;4.88;;;;;;;;;;5117097;28;20032;-62
2021/07/07 21:00:27;;;;;;;8.40;5.40;;;;;;;;;;5116876;28;20119;-63
2021/07/07 21:02:53;;;;;;;8.93;5.00;;;;;;;;;;5117036;28;20060;-62
2021/07/07 21:05:21;;;;;;;7.30;4.55;;;;;;;;;;5117017;28;20106;-62
2021/07/07 21:07:47;;;;;;;8.45;4.45;;;;;;;;;;5116718;28;20024;-62
2021/07/07 21:10:13;;;;;;;10.95;5.40;;;;;;;;;;5116339;28;20030;-62
2021/07/07 21:12:40;;;;;;;10.55;5.80;;;;;;;;;;5095347;28;20112;-67
2021/07/07 21:15:06;;;;;;;10.73;6.93;;;;;;;;;;5116809;28;20474;-62
2021/07/07 21:17:33;;;;;;;9.70;6.00;;;;;;;;;;5112964;28;20044;-62
2021/07/07 21:19:59;;;;;;;11.70;6.32;;;;;;;;;;5114578;28;20122;-63
2021/07/07 21:22:25;;;;;;;12.45;7.15;;;;;;;;;;5112004;27;20322;-63
2021/07/07 21:24:51;;;;;;;10.82;6.80;;;;;;;;;;5122897;27;20482;-62
2021/07/07 21:27:17;;;;;;;10.95;5.97;;;;;;;;;;5117194;27;20069;-63
2021/07/07 21:29:43;;;;;;;10.68;5.88;;;;;;;;;;5127770;27;20050;-62
2021/07/07 21:32:09;;;;;;;9.60;5.68;;;;;;;;;;5115328;27;20034;-63
2021/07/07 21:34:36;;;;;;;10.32;5.25;;;;;;;;;;5134396;27;20356;-68
2021/07/07 21:37:03;;;;;;;7.88;5.15;;;;;;;;;;5127124;27;20059;-63
2021/07/07 21:39:29;;;;;;;7.65;4.93;;;;;;;;;;5112236;27;20474;-63
2021/07/07 21:41:56;;;;;;;7.18;4.55;;;;;;;;;;5135219;27;20071;-62
2021/07/07 21:44:22;;;;;;;8.05;5.00;;;;;;;;;;5102151;27;20493;-62
2021/07/07 21:46:48;;;;;;;10.27;5.05;;;;;;;;;;5126949;27;20055;-63
2021/07/07 21:49:14;;;;;;;9.00;5.13;;;;;;;;;;5131672;27;20458;-63
2021/07/07 21:51:40;;;;;;;7.63;4.97;;;;;;;;;;5125436;27;20507;-63
2021/07/07 21:54:06;;;;;;;7.80;4.90;;;;;;;;;;5134423;27;20125;-62
2021/07/07 21:56:32;;;;;;;9.02;4.88;;;;;;;;;;5094704;28;20494;-63
2021/07/07 21:58:58;;;;;;;7.82;4.97;;;;;;;;;;5115011;27;20035;-62